Time;durP1;ratioP1;P1;durP2;ratioP2;P2;SDS_P1;SDS_P2;PMS_P1;PMS_P2;Temp;Humidity;BMP_temperature;BMP_pressure;BME280_temperature;BME280_humidity;BME280_pressure;Samples;Min_cycle;Max_cycle;Signal;HPM_P1;HPM_P2
2022/03/06 00:01:56;;;;;;;24.15;14.30;;;1.80;99.90;;;;;;4991033;28;20041;-69
2022/03/06 00:04:22;;;;;;;22.80;13.43;;;1.80;99.90;;;;;;4995511;28;20041;-69
2022/03/06 00:06:47;;;;;;;21.23;13.00;;;1.80;99.90;;;;;;4992317;28;20049;-68
2022/03/06 00:09:13;;;;;;;26.65;14.27;;;1.80;99.90;;;;;;5015811;28;20041;-69
2022/03/06 00:11:39;;;;;;;25.42;14.60;;;1.80;99.90;;;;;;4978694;28;20671;-69
2022/03/06 00:14:05;;;;;;;23.50;14.05;;;1.70;99.90;;;;;;4992710;28;20045;-68
2022/03/06 00:16:31;;;;;;;25.55;14.93;;;1.70;99.90;;;;;;4994091;28;20413;-69
2022/03/06 00:18:56;;;;;;;19.38;12.02;;;1.70;99.90;;;;;;4990619;28;20038;-69
2022/03/06 00:21:22;;;;;;;20.20;13.55;;;1.80;99.90;;;;;;4989566;28;20038;-68
2022/03/06 00:23:48;;;;;;;21.38;13.55;;;1.80;99.90;;;;;;4993949;28;20502;-68
2022/03/06 00:26:13;;;;;;;27.33;12.65;;;1.80;99.90;;;;;;4996061;28;20552;-68
2022/03/06 00:28:39;;;;;;;21.67;12.63;;;1.80;99.90;;;;;;4992569;28;20057;-68
2022/03/06 00:31:06;;;;;;;23.70;13.40;;;1.80;99.90;;;;;;4991412;28;20065;-68
2022/03/06 00:33:31;;;;;;;19.20;12.68;;;1.80;99.90;;;;;;4993600;28;20405;-68
2022/03/06 00:35:57;;;;;;;19.33;13.65;;;1.80;99.90;;;;;;4991201;28;20053;-68
2022/03/06 00:38:23;;;;;;;20.40;12.60;;;1.80;99.90;;;;;;4988829;28;20467;-68
2022/03/06 00:40:49;;;;;;;19.13;13.30;;;1.70;99.90;;;;;;4993244;28;20501;-68
2022/03/06 00:43:18;;;;;;;21.20;13.48;;;1.70;99.90;;;;;;4994360;28;20128;-69
2022/03/06 00:45:44;;;;;;;19.75;12.40;;;1.70;99.90;;;;;;4997949;28;20405;-68
2022/03/06 00:48:09;;;;;;;23.42;13.38;;;1.70;99.90;;;;;;4991974;28;20161;-69
2022/03/06 00:50:36;;;;;;;23.48;13.88;;;1.70;99.90;;;;;;4991945;28;20049;-68
2022/03/06 00:53:02;;;;;;;22.63;13.80;;;1.70;99.90;;;;;;4994030;28;20042;-68
2022/03/06 00:55:28;;;;;;;20.90;13.52;;;1.60;99.90;;;;;;4993970;28;20559;-68
2022/03/06 00:57:53;;;;;;;21.17;13.32;;;1.60;99.90;;;;;;4992985;28;20133;-68
2022/03/06 01:00:20;;;;;;;20.08;13.40;;;1.60;99.90;;;;;;4991610;28;20580;-68
2022/03/06 01:02:45;;;;;;;19.55;13.00;;;1.70;99.90;;;;;;4996573;28;20124;-68
2022/03/06 01:05:12;;;;;;;19.45;13.50;;;1.70;99.90;;;;;;4992012;28;20103;-68
2022/03/06 01:07:37;;;;;;;19.48;14.40;;;1.70;99.90;;;;;;5012071;28;20046;-68
2022/03/06 01:10:04;;;;;;;19.42;13.48;;;1.70;99.90;;;;;;4995282;28;20052;-68
2022/03/06 01:12:29;;;;;;;19.65;13.73;;;1.80;99.90;;;;;;5008489;28;20038;-68
2022/03/06 01:14:55;;;;;;;23.70;14.00;;;1.80;99.90;;;;;;4992761;28;20048;-68
2022/03/06 01:17:20;;;;;;;22.50;14.50;;;1.80;99.90;;;;;;4996149;28;20053;-69
2022/03/06 01:19:47;;;;;;;20.73;13.68;;;1.80;99.90;;;;;;5000537;28;20497;-68
2022/03/06 01:22:13;;;;;;;19.08;13.93;;;1.90;99.90;;;;;;4987012;28;20046;-68
2022/03/06 01:24:39;;;;;;;17.67;13.30;;;1.90;99.90;;;;;;5007626;28;20069;-68
2022/03/06 01:27:05;;;;;;;19.80;14.00;;;2.00;99.90;;;;;;5009675;28;20050;-68
2022/03/06 01:29:30;;;;;;;23.08;15.05;;;2.00;99.90;;;;;;5010404;28;20049;-68
2022/03/06 01:31:56;;;;;;;19.45;14.80;;;2.00;99.90;;;;;;5021409;28;20045;-67
2022/03/06 01:34:22;;;;;;;20.27;14.52;;;2.00;99.90;;;;;;5018048;28;20046;-68
2022/03/06 01:36:47;;;;;;;18.70;13.95;;;2.00;99.90;;;;;;5001376;28;20562;-67
2022/03/06 01:39:13;;;;;;;20.15;13.70;;;2.10;99.90;;;;;;4998538;28;20046;-68
2022/03/06 01:41:38;;;;;;;19.02;14.27;;;2.10;99.90;;;;;;4996647;28;20048;-68
2022/03/06 01:44:05;;;;;;;21.02;13.98;;;2.10;99.90;;;;;;4996034;28;20128;-68
2022/03/06 01:46:31;;;;;;;23.02;14.15;;;2.20;99.90;;;;;;5005164;28;20089;-68
2022/03/06 01:48:56;;;;;;;19.10;13.98;;;2.20;99.90;;;;;;5016771;28;20469;-68
2022/03/06 01:51:22;;;;;;;24.05;14.40;;;2.20;99.90;;;;;;4998071;28;20038;-68
2022/03/06 01:53:48;;;;;;;20.30;13.50;;;2.20;99.90;;;;;;4994104;28;20042;-68
2022/03/06 01:56:14;;;;;;;22.63;15.13;;;2.20;99.90;;;;;;4997653;28;20496;-68
2022/03/06 01:58:41;;;;;;;24.73;13.68;;;2.20;99.90;;;;;;4995428;28;20409;-68
2022/03/06 02:01:06;;;;;;;22.52;14.18;;;2.20;99.90;;;;;;4993134;28;20050;-69
2022/03/06 02:03:32;;;;;;;20.67;12.75;;;2.30;99.90;;;;;;5003217;28;20690;-68
2022/03/06 02:05:57;;;;;;;20.65;13.27;;;2.30;99.90;;;;;;4996802;28;20050;-68
2022/03/06 02:08:23;;;;;;;21.38;13.65;;;2.30;99.90;;;;;;4994373;28;20035;-68
2022/03/06 02:10:50;;;;;;;23.73;14.15;;;2.30;99.90;;;;;;5016317;28;20037;-68
2022/03/06 02:13:16;;;;;;;19.95;13.63;;;2.30;99.90;;;;;;5009320;28;20129;-69
2022/03/06 02:15:44;;;;;;;20.25;14.25;;;2.30;99.90;;;;;;4995407;28;20132;-68
2022/03/06 02:18:10;;;;;;;21.60;13.23;;;2.30;99.90;;;;;;5008688;28;20054;-69
2022/03/06 02:20:37;;;;;;;19.33;13.00;;;2.30;99.90;;;;;;4997605;28;20121;-68
2022/03/06 02:23:03;;;;;;;17.67;13.05;;;2.30;99.90;;;;;;4989081;28;20037;-69
2022/03/06 02:25:31;;;;;;;17.77;12.55;;;2.30;99.90;;;;;;5015294;28;20584;-69
2022/03/06 02:27:59;;;;;;;30.60;15.00;;;2.30;99.90;;;;;;4991300;28;20038;-69
2022/03/06 02:30:31;;;;;;;19.58;13.38;;;2.30;99.90;;;;;;4993168;28;20046;-69
2022/03/06 02:32:59;;;;;;;16.92;12.13;;;2.30;99.90;;;;;;4990490;28;20069;-68
2022/03/06 02:35:26;;;;;;;18.10;12.85;;;2.30;99.90;;;;;;4991698;28;20559;-68
2022/03/06 02:37:52;;;;;;;16.17;11.65;;;2.30;99.90;;;;;;4989431;28;20045;-69
2022/03/06 02:40:20;;;;;;;19.05;12.65;;;2.30;99.90;;;;;;4991547;28;20039;-69
2022/03/06 02:42:47;;;;;;;18.85;10.75;;;2.30;99.90;;;;;;4995693;28;20045;-69
2022/03/06 02:45:26;;;;;;;15.88;10.77;;;2.30;99.90;;;;;;4999711;28;20041;-69
2022/03/06 02:47:54;;;;;;;17.30;10.60;;;2.40;99.90;;;;;;4989815;28;20077;-69
2022/03/06 02:50:22;;;;;;;20.05;12.27;;;2.40;99.90;;;;;;4993421;28;20069;-69
2022/03/06 02:52:49;;;;;;;17.95;10.60;;;2.40;99.90;;;;;;4990823;28;20513;-69
2022/03/06 02:55:16;;;;;;;13.82;8.75;;;2.40;99.90;;;;;;4992525;28;20056;-69
2022/03/06 02:57:42;;;;;;;16.35;9.88;;;2.40;99.90;;;;;;4995126;28;20046;-69
2022/03/06 03:00:11;;;;;;;16.65;9.93;;;2.40;99.90;;;;;;4995010;28;20495;-69
2022/03/06 03:02:38;;;;;;;14.93;9.10;;;2.40;99.90;;;;;;4996291;28;20049;-69
2022/03/06 03:05:10;;;;;;;17.65;9.13;;;2.40;99.90;;;;;;4992269;28;20058;-69
2022/03/06 03:07:41;;;;;;;16.05;8.70;;;2.40;99.90;;;;;;5011893;28;20046;-67
2022/03/06 03:10:09;;;;;;;14.75;8.18;;;2.30;99.90;;;;;;4992964;28;20073;-68
2022/03/06 03:12:35;;;;;;;14.18;8.50;;;2.40;99.90;;;;;;5010431;28;20050;-68
2022/03/06 03:15:03;;;;;;;12.85;7.63;;;2.30;99.90;;;;;;4979189;28;20045;-71
2022/03/06 03:17:28;;;;;;;15.40;8.07;;;2.30;99.90;;;;;;4994761;28;20049;-68
2022/03/06 03:19:54;;;;;;;12.15;7.05;;;2.30;99.90;;;;;;5001361;28;20041;-68
2022/03/06 03:22:19;;;;;;;14.52;7.22;;;2.30;99.90;;;;;;4998066;28;20045;-69
2022/03/06 03:24:52;;;;;;;11.93;6.90;;;2.30;99.90;;;;;;4999433;28;20508;-69
2022/03/06 03:27:17;;;;;;;15.05;7.43;;;2.40;99.90;;;;;;4994358;28;20404;-68
2022/03/06 03:29:43;;;;;;;11.68;6.95;;;2.30;99.90;;;;;;5001145;28;20041;-68
2022/03/06 03:32:09;;;;;;;13.65;6.82;;;2.30;99.90;;;;;;4996927;28;20053;-69
2022/03/06 03:34:35;;;;;;;14.00;7.65;;;2.40;99.90;;;;;;4997411;28;20714;-69
2022/03/06 03:37:02;;;;;;;8.15;6.13;;;2.30;99.90;;;;;;4995062;28;20034;-69
2022/03/06 03:39:27;;;;;;;8.93;6.35;;;2.40;99.90;;;;;;5015100;28;20500;-69
2022/03/06 03:41:53;;;;;;;11.02;6.10;;;2.30;99.90;;;;;;5019425;28;20080;-69
2022/03/06 03:44:19;;;;;;;10.02;6.38;;;2.30;99.90;;;;;;5018639;28;20054;-69
2022/03/06 03:46:45;;;;;;;11.57;6.50;;;2.30;99.90;;;;;;4997215;28;20103;-69
2022/03/06 03:49:11;;;;;;;11.73;6.72;;;2.30;99.90;;;;;;4990937;28;20111;-67
2022/03/06 03:51:38;;;;;;;10.90;7.07;;;2.30;99.90;;;;;;4997825;28;20039;-68
2022/03/06 03:54:03;;;;;;;13.32;6.22;;;2.30;99.90;;;;;;5012872;28;20115;-68
2022/03/06 03:56:29;;;;;;;10.30;6.55;;;2.20;99.90;;;;;;4997021;28;20497;-68
2022/03/06 03:58:55;;;;;;;12.55;6.32;;;2.20;99.90;;;;;;5001060;28;20034;-69
2022/03/06 04:01:21;;;;;;;11.63;6.10;;;2.20;99.90;;;;;;5008241;28;20105;-68
2022/03/06 04:03:46;;;;;;;11.05;6.28;;;2.30;99.90;;;;;;4996305;28;20625;-68
2022/03/06 04:06:12;;;;;;;11.82;6.22;;;2.20;99.90;;;;;;4991364;28;20050;-69
2022/03/06 04:08:38;;;;;;;11.02;6.13;;;2.20;99.90;;;;;;4992260;28;20128;-68
2022/03/06 04:11:05;;;;;;;11.27;6.40;;;2.20;99.90;;;;;;4993772;28;20382;-68
2022/03/06 04:13:30;;;;;;;9.82;6.38;;;2.20;99.90;;;;;;4989707;28;20054;-68
2022/03/06 04:15:56;;;;;;;13.93;7.43;;;2.30;99.90;;;;;;5012709;28;20038;-68
2022/03/06 04:18:21;;;;;;;16.23;7.07;;;2.30;99.90;;;;;;5015883;28;20068;-68
2022/03/06 04:20:48;;;;;;;10.45;6.88;;;2.30;99.90;;;;;;4996084;28;20115;-68
2022/03/06 04:23:13;;;;;;;10.23;6.50;;;2.30;99.90;;;;;;4986911;28;20033;-68
2022/03/06 04:25:40;;;;;;;14.65;7.20;;;2.30;99.90;;;;;;5015782;28;20385;-68
2022/03/06 04:28:06;;;;;;;11.88;6.82;;;2.30;99.90;;;;;;4996137;28;20034;-68
2022/03/06 04:30:31;;;;;;;13.10;6.80;;;2.30;99.90;;;;;;4996051;28;20042;-68
2022/03/06 04:32:57;;;;;;;9.73;6.57;;;2.30;99.90;;;;;;4992318;28;20038;-68
2022/03/06 04:35:23;;;;;;;12.95;7.53;;;2.40;99.90;;;;;;4997247;28;20038;-68
2022/03/06 04:37:48;;;;;;;14.27;6.97;;;2.40;99.90;;;;;;5011586;28;20455;-68
2022/03/06 04:40:14;;;;;;;10.88;6.50;;;2.40;99.90;;;;;;4998483;28;20052;-68
2022/03/06 04:42:40;;;;;;;14.95;6.85;;;2.50;99.90;;;;;;5009259;28;20030;-68
2022/03/06 04:45:07;;;;;;;11.57;6.63;;;2.40;99.90;;;;;;4998361;28;20045;-69
2022/03/06 04:47:32;;;;;;;12.68;6.90;;;2.50;99.90;;;;;;4995220;28;20064;-68
2022/03/06 04:49:58;;;;;;;15.50;6.95;;;2.50;99.90;;;;;;5000386;28;20034;-67
2022/03/06 04:52:23;;;;;;;14.18;6.78;;;2.60;99.90;;;;;;4996700;28;20049;-67
2022/03/06 04:54:49;;;;;;;14.73;7.50;;;2.60;99.90;;;;;;4996498;28;20636;-68
2022/03/06 04:57:15;;;;;;;18.10;8.10;;;2.50;99.90;;;;;;5011695;28;20091;-68
2022/03/06 04:59:41;;;;;;;11.80;6.80;;;2.50;99.90;;;;;;5015892;28;20104;-68
2022/03/06 05:02:06;;;;;;;14.05;6.28;;;2.50;99.90;;;;;;4992510;28;20124;-69
2022/03/06 05:04:32;;;;;;;12.32;6.75;;;2.60;99.90;;;;;;4996357;28;20136;-68
2022/03/06 05:06:58;;;;;;;15.45;7.15;;;2.50;99.90;;;;;;5007444;28;20102;-68
2022/03/06 05:09:23;;;;;;;12.35;6.68;;;2.60;99.90;;;;;;5017741;28;20546;-68
2022/03/06 05:11:49;;;;;;;12.23;6.03;;;2.50;99.90;;;;;;4990671;28;20080;-68
2022/03/06 05:14:16;;;;;;;10.80;6.43;;;2.50;99.90;;;;;;4993129;28;20046;-68
2022/03/06 05:16:42;;;;;;;12.45;6.63;;;2.50;99.90;;;;;;5019227;28;20045;-68
2022/03/06 05:19:07;;;;;;;11.05;7.20;;;2.50;99.90;;;;;;4991577;28;21713;-69
2022/03/06 05:21:33;;;;;;;13.10;6.85;;;2.50;99.90;;;;;;4994701;28;20049;-68
2022/03/06 05:23:59;;;;;;;11.77;6.88;;;2.50;99.90;;;;;;4994598;28;20057;-68
2022/03/06 05:26:24;;;;;;;12.77;6.70;;;2.50;99.90;;;;;;4994787;28;20402;-68
2022/03/06 05:28:50;;;;;;;8.48;5.95;;;2.50;99.90;;;;;;4996231;28;20107;-68
2022/03/06 05:31:16;;;;;;;8.68;5.50;;;2.50;99.90;;;;;;4998669;28;20046;-68
2022/03/06 05:33:41;;;;;;;9.98;5.93;;;2.50;99.90;;;;;;4993557;28;20096;-68
2022/03/06 05:36:07;;;;;;;10.18;5.82;;;2.50;99.90;;;;;;5017378;28;20050;-69
2022/03/06 05:38:33;;;;;;;12.20;5.47;;;2.50;99.90;;;;;;5010525;28;20046;-68
2022/03/06 05:40:58;;;;;;;9.00;4.85;;;2.50;99.90;;;;;;4992462;28;20452;-68
2022/03/06 05:43:24;;;;;;;11.57;5.20;;;2.50;99.90;;;;;;5013360;28;20058;-68
2022/03/06 05:45:51;;;;;;;9.23;5.18;;;2.50;99.90;;;;;;4993390;28;20042;-67
2022/03/06 05:48:18;;;;;;;8.45;5.10;;;2.50;99.90;;;;;;4988791;28;20054;-68
2022/03/06 05:50:44;;;;;;;6.35;3.58;;;2.50;99.90;;;;;;4995665;28;20117;-68
2022/03/06 05:53:10;;;;;;;6.40;3.58;;;2.40;99.90;;;;;;4993816;28;20125;-68
2022/03/06 05:55:36;;;;;;;10.32;3.55;;;2.50;99.90;;;;;;4995229;28;20052;-68
2022/03/06 05:58:02;;;;;;;5.43;3.33;;;2.50;99.90;;;;;;4994190;28;20072;-68
2022/03/06 06:00:28;;;;;;;9.57;3.53;;;2.50;99.90;;;;;;4991809;28;20093;-67
2022/03/06 06:02:55;;;;;;;15.32;9.23;;;2.50;99.90;;;;;;4995129;28;20193;-68
2022/03/06 06:05:24;;;;;;;6.43;3.35;;;2.50;99.90;;;;;;4996512;28;20535;-68
2022/03/06 06:07:51;;;;;;;6.85;3.10;;;2.50;99.90;;;;;;5012056;28;20041;-68
2022/03/06 06:10:17;;;;;;;9.77;3.10;;;2.50;99.90;;;;;;4996290;28;20041;-68
2022/03/06 06:12:43;;;;;;;7.13;3.45;;;2.50;99.90;;;;;;4998426;28;20132;-68
2022/03/06 06:15:09;;;;;;;11.93;4.45;;;2.50;99.90;;;;;;4997061;28;20038;-69
2022/03/06 06:17:35;;;;;;;4.53;2.58;;;2.40;99.90;;;;;;4996805;28;20045;-68
2022/03/06 06:20:04;;;;;;;6.28;2.38;;;2.50;99.90;;;;;;5018133;28;20096;-68
2022/03/06 06:22:31;;;;;;;4.82;2.58;;;2.50;99.90;;;;;;5014593;28;20037;-68
2022/03/06 06:24:56;;;;;;;6.32;2.80;;;2.50;99.90;;;;;;4996416;28;20149;-68
2022/03/06 06:27:22;;;;;;;6.40;2.50;;;2.50;99.90;;;;;;4997197;28;20129;-68
2022/03/06 06:29:48;;;;;;;5.68;2.15;;;2.50;99.90;;;;;;4996494;28;20068;-68
2022/03/06 06:32:14;;;;;;;4.13;2.47;;;2.50;99.90;;;;;;4991458;28;20045;-68
2022/03/06 06:34:40;;;;;;;7.35;2.50;;;2.50;99.90;;;;;;4992722;28;20077;-68
2022/03/06 06:37:06;;;;;;;3.75;2.00;;;2.50;99.90;;;;;;4999222;28;20040;-68
2022/03/06 06:39:32;;;;;;;7.63;2.22;;;2.50;99.90;;;;;;5016801;28;20413;-67
2022/03/06 06:41:59;;;;;;;5.78;2.38;;;2.50;99.90;;;;;;5001711;28;20057;-68
2022/03/06 06:44:25;;;;;;;3.55;2.35;;;2.50;99.90;;;;;;4995233;28;20513;-68
2022/03/06 06:46:51;;;;;;;4.40;1.95;;;2.50;99.90;;;;;;4999841;28;20038;-68
2022/03/06 06:49:16;;;;;;;5.75;2.20;;;2.50;99.90;;;;;;4999155;28;20033;-68
2022/03/06 06:51:42;;;;;;;5.72;2.60;;;2.50;99.90;;;;;;4997623;28;20444;-68
2022/03/06 06:54:08;;;;;;;5.68;2.30;;;2.50;99.90;;;;;;4996422;28;20171;-69
2022/03/06 06:56:34;;;;;;;5.45;2.20;;;2.50;99.90;;;;;;4998769;28;20120;-69
2022/03/06 06:58:59;;;;;;;8.85;2.35;;;2.50;99.90;;;;;;4995932;28;20451;-70
2022/03/06 07:01:25;;;;;;;4.88;2.20;;;2.40;99.90;;;;;;4995606;28;20140;-69
2022/03/06 07:03:51;;;;;;;4.68;1.90;;;2.40;99.90;;;;;;4994550;28;20464;-69
2022/03/06 07:06:16;;;;;;;5.90;1.90;;;2.30;99.90;;;;;;4998934;28;20532;-69
2022/03/06 07:08:42;;;;;;;6.82;2.10;;;2.30;99.90;;;;;;4998074;28;20057;-69
2022/03/06 07:11:08;;;;;;;7.22;2.45;;;2.30;99.90;;;;;;4996682;28;20069;-69
2022/03/06 07:13:34;;;;;;;4.00;2.03;;;2.30;99.90;;;;;;4999721;28;20103;-69
2022/03/06 07:16:00;;;;;;;4.82;2.50;;;2.20;99.90;;;;;;4999361;28;20439;-70
2022/03/06 07:18:26;;;;;;;13.45;3.30;;;2.20;99.90;;;;;;4997549;28;20073;-69
2022/03/06 07:20:52;;;;;;;7.88;2.80;;;2.10;99.90;;;;;;5014445;28;20167;-69
2022/03/06 07:23:18;;;;;;;6.90;2.08;;;2.10;99.90;;;;;;4996532;28;20531;-70
2022/03/06 07:25:44;;;;;;;3.70;2.00;;;2.10;99.90;;;;;;4995051;28;20045;-69
2022/03/06 07:28:10;;;;;;;7.63;2.15;;;2.10;99.90;;;;;;4993387;28;20046;-69
2022/03/06 07:30:35;;;;;;;4.55;1.90;;;2.20;99.90;;;;;;4991471;28;20057;-68
2022/03/06 07:33:01;;;;;;;6.78;2.40;;;2.20;99.90;;;;;;4992467;28;20041;-69
2022/03/06 07:35:28;;;;;;;5.30;2.00;;;2.30;99.90;;;;;;5013438;28;20512;-69
2022/03/06 07:37:54;;;;;;;5.07;2.17;;;2.30;99.90;;;;;;4993396;28;20060;-68
2022/03/06 07:40:22;;;;;;;4.43;1.77;;;2.40;99.90;;;;;;5017346;28;20049;-69
2022/03/06 07:42:48;;;;;;;3.08;1.75;;;2.40;99.90;;;;;;4994850;28;20082;-69
2022/03/06 07:45:15;;;;;;;3.22;1.75;;;2.50;99.90;;;;;;5011561;28;20501;-70
2022/03/06 07:47:41;;;;;;;5.43;2.15;;;2.60;99.90;;;;;;4997324;28;20133;-68
2022/03/06 07:50:09;;;;;;;3.80;1.67;;;2.70;99.90;;;;;;4995734;28;20529;-69
2022/03/06 07:52:36;;;;;;;4.95;2.05;;;2.70;99.90;;;;;;5009760;28;20517;-69
2022/03/06 07:55:02;;;;;;;5.57;1.98;;;2.80;99.90;;;;;;5012798;28;20113;-67
2022/03/06 07:57:28;;;;;;;4.38;1.80;;;2.80;99.90;;;;;;4995016;28;20060;-70
2022/03/06 07:59:53;;;;;;;7.07;2.03;;;2.90;99.90;;;;;;4994817;28;20080;-69
2022/03/06 08:02:19;;;;;;;5.38;1.90;;;3.00;99.90;;;;;;5014067;28;20114;-69
2022/03/06 08:04:45;;;;;;;5.57;2.30;;;3.00;99.90;;;;;;5013137;28;20042;-69
2022/03/06 08:07:10;;;;;;;4.25;1.92;;;3.10;99.90;;;;;;5011748;28;20046;-69
2022/03/06 08:09:36;;;;;;;5.20;2.05;;;3.10;99.90;;;;;;5013211;28;20652;-69
2022/03/06 08:12:02;;;;;;;5.70;2.28;;;3.20;99.90;;;;;;4993741;28;20061;-70
2022/03/06 08:14:29;;;;;;;3.97;1.70;;;3.30;99.90;;;;;;4985874;28;20060;-70
2022/03/06 08:16:59;;;;;;;3.50;1.60;;;3.30;99.90;;;;;;5016968;28;20041;-67
2022/03/06 08:19:29;;;;;;;5.35;1.83;;;3.40;99.90;;;;;;4984046;28;20079;-71
2022/03/06 08:22:01;;;;;;;5.95;1.77;;;3.50;99.90;;;;;;4991289;28;20052;-68
2022/03/06 08:24:27;;;;;;;5.47;1.70;;;3.50;99.90;;;;;;5013769;28;20566;-69
2022/03/06 08:26:54;;;;;;;4.22;1.60;;;3.60;99.90;;;;;;5007227;28;20065;-70
2022/03/06 08:29:19;;;;;;;5.25;1.92;;;3.60;99.90;;;;;;5017040;28;20049;-70
2022/03/06 08:31:46;;;;;;;4.60;1.67;;;3.70;99.90;;;;;;5010983;28;20613;-68
2022/03/06 08:34:12;;;;;;;3.53;1.55;;;3.60;99.90;;;;;;5009450;28;20501;-69
2022/03/06 08:36:38;;;;;;;2.80;1.70;;;3.70;99.90;;;;;;5008104;28;20563;-68
2022/03/06 08:39:04;;;;;;;3.40;1.80;;;3.70;99.90;;;;;;5008234;28;20810;-69
2022/03/06 08:41:29;;;;;;;6.50;2.53;;;3.80;99.90;;;;;;5004077;28;20049;-70
2022/03/06 08:43:55;;;;;;;6.28;1.90;;;3.80;99.90;;;;;;5004465;28;20069;-69
2022/03/06 08:46:21;;;;;;;3.42;1.80;;;3.90;99.90;;;;;;5004328;28;20369;-69
2022/03/06 08:48:50;;;;;;;4.03;2.05;;;3.90;99.90;;;;;;5030213;28;20534;-69
2022/03/06 08:51:16;;;;;;;5.43;2.17;;;4.00;99.90;;;;;;5008468;28;20052;-68
2022/03/06 08:53:42;;;;;;;4.70;2.10;;;4.00;99.90;;;;;;5009662;28;20042;-69
2022/03/06 08:56:07;;;;;;;4.57;2.42;;;4.00;99.90;;;;;;5010306;28;20077;-70
2022/03/06 08:58:35;;;;;;;5.60;2.10;;;4.00;99.90;;;;;;5010570;28;20073;-70
2022/03/06 09:01:00;;;;;;;4.68;2.22;;;4.00;99.90;;;;;;4990976;28;20038;-69
2022/03/06 09:03:26;;;;;;;4.88;2.00;;;4.00;99.90;;;;;;4989104;28;20498;-69
2022/03/06 09:05:52;;;;;;;5.68;2.25;;;4.10;99.90;;;;;;4995446;28;20046;-70
2022/03/06 09:08:18;;;;;;;4.10;2.05;;;4.10;99.90;;;;;;4989319;28;20046;-70
2022/03/06 09:10:44;;;;;;;6.00;2.20;;;4.10;99.90;;;;;;5009798;28;20512;-69
2022/03/06 09:13:09;;;;;;;7.45;2.53;;;4.10;99.90;;;;;;5007102;28;20045;-70
2022/03/06 09:15:38;;;;;;;5.43;2.10;;;4.20;99.90;;;;;;5004206;28;20062;-70
2022/03/06 09:18:05;;;;;;;5.22;2.00;;;4.20;99.90;;;;;;5013299;28;20127;-70
2022/03/06 09:20:31;;;;;;;7.45;2.17;;;4.30;99.90;;;;;;4990035;28;20084;-69
2022/03/06 09:22:58;;;;;;;5.63;2.55;;;4.30;99.90;;;;;;5008547;28;20046;-69
2022/03/06 09:25:23;;;;;;;4.85;2.20;;;4.30;99.90;;;;;;4988176;28;20046;-70
2022/03/06 09:27:49;;;;;;;5.32;2.20;;;4.30;99.90;;;;;;4987490;28;20057;-68
2022/03/06 09:30:15;;;;;;;3.63;1.50;;;4.30;99.90;;;;;;4983658;28;20042;-69
2022/03/06 09:32:41;;;;;;;5.95;2.10;;;4.40;99.90;;;;;;4985674;28;20042;-70
2022/03/06 09:35:08;;;;;;;5.93;2.60;;;4.30;99.90;;;;;;4985349;28;20049;-70
2022/03/06 09:37:33;;;;;;;4.78;2.35;;;4.40;99.90;;;;;;4986161;28;20104;-68
2022/03/06 09:40:00;;;;;;;5.43;2.22;;;4.40;99.90;;;;;;4987543;28;20444;-68
2022/03/06 09:42:25;;;;;;;6.20;1.80;;;4.40;99.90;;;;;;5005138;28;20054;-69
2022/03/06 09:44:51;;;;;;;5.57;2.25;;;4.50;99.90;;;;;;5003455;28;20104;-70
2022/03/06 09:47:17;;;;;;;4.40;2.10;;;4.50;99.90;;;;;;4986669;28;20485;-69
2022/03/06 09:49:44;;;;;;;5.95;2.47;;;4.60;99.90;;;;;;4984754;28;20042;-69
2022/03/06 09:52:11;;;;;;;5.00;2.17;;;4.60;99.90;;;;;;4988350;28;20049;-70
2022/03/06 09:54:37;;;;;;;7.20;1.98;;;4.60;99.90;;;;;;4991092;28;20374;-70
2022/03/06 09:57:03;;;;;;;4.45;2.15;;;4.70;99.90;;;;;;4994066;28;20034;-70
2022/03/06 09:59:31;;;;;;;6.43;2.95;;;4.70;99.90;;;;;;4992303;28;20132;-70
2022/03/06 10:02:05;;;;;;;7.22;2.30;;;4.70;99.90;;;;;;4989105;28;20034;-70
2022/03/06 10:04:34;;;;;;;4.88;1.90;;;4.80;99.90;;;;;;5008637;28;20968;-68
2022/03/06 10:07:08;;;;;;;6.43;1.88;;;4.80;99.90;;;;;;4990104;28;20049;-69
2022/03/06 10:09:44;;;;;;;4.05;2.10;;;4.90;99.90;;;;;;5010153;28;20607;-69
2022/03/06 10:12:22;;;;;;;7.30;2.60;;;4.90;99.90;;;;;;5006661;28;20493;-69
2022/03/06 10:14:49;;;;;;;5.22;2.15;;;4.90;99.90;;;;;;5006600;28;20621;-69
2022/03/06 10:17:17;;;;;;;6.07;2.10;;;5.00;99.90;;;;;;5008273;28;20049;-68
2022/03/06 10:19:48;;;;;;;6.00;2.15;;;5.00;99.90;;;;;;4987836;28;20049;-69
2022/03/06 10:22:14;;;;;;;7.80;2.72;;;5.00;99.90;;;;;;4992069;28;20704;-69
2022/03/06 10:24:51;;;;;;;6.40;2.42;;;5.10;99.90;;;;;;4989689;28;20588;-69
2022/03/06 10:27:36;;;;;;;7.95;2.92;;;5.20;99.90;;;;;;5005291;28;20064;-70
2022/03/06 10:30:21;;;;;;;6.75;2.13;;;5.20;99.90;;;;;;4985822;28;20188;-69
2022/03/06 10:32:46;;;;;;;4.60;2.10;;;5.20;99.90;;;;;;5007805;28;20041;-70
2022/03/06 10:35:12;;;;;;;5.25;2.63;;;5.30;99.90;;;;;;5005072;28;20069;-70
2022/03/06 10:37:38;;;;;;;7.28;2.90;;;5.50;99.90;;;;;;4986931;28;20054;-68
2022/03/06 10:40:04;;;;;;;4.30;2.33;;;5.50;99.90;;;;;;5004727;28;20497;-68
2022/03/06 10:42:30;;;;;;;4.65;2.08;;;5.50;99.90;;;;;;5016032;28;20049;-68
2022/03/06 10:44:56;;;;;;;4.68;2.42;;;5.50;99.90;;;;;;4995247;28;20042;-69
2022/03/06 10:47:21;;;;;;;7.07;2.33;;;5.50;99.90;;;;;;4996537;28;20050;-69
2022/03/06 10:50:01;;;;;;;4.47;2.15;;;5.40;99.90;;;;;;4998360;28;20038;-69
2022/03/06 10:52:26;;;;;;;4.10;2.40;;;5.50;99.90;;;;;;4993673;28;20041;-69
2022/03/06 10:54:57;;;;;;;6.32;2.40;;;5.50;99.90;;;;;;5007189;28;20500;-69
2022/03/06 10:57:24;;;;;;;5.82;2.42;;;5.70;99.90;;;;;;4992851;28;20045;-69
2022/03/06 10:59:51;;;;;;;7.13;2.25;;;5.70;99.90;;;;;;4999677;28;20064;-69
2022/03/06 11:02:17;;;;;;;6.22;2.30;;;5.80;99.90;;;;;;5009848;28;20072;-68
2022/03/06 11:04:47;;;;;;;4.60;1.98;;;5.90;99.90;;;;;;5008905;28;20581;-68
2022/03/06 11:07:13;;;;;;;4.38;2.20;;;5.80;99.90;;;;;;4987797;28;20069;-68
2022/03/06 11:09:40;;;;;;;5.03;2.20;;;5.80;99.90;;;;;;5008028;28;20553;-69
2022/03/06 11:12:07;;;;;;;5.53;2.80;;;5.80;99.90;;;;;;5014631;28;20095;-68
2022/03/06 11:14:33;;;;;;;5.45;2.40;;;5.80;99.90;;;;;;4992242;28;20049;-68
2022/03/06 11:16:59;;;;;;;5.22;2.80;;;5.80;99.90;;;;;;4996471;28;20046;-68
2022/03/06 11:19:26;;;;;;;7.90;2.17;;;5.80;99.90;;;;;;4994234;28;20049;-68
2022/03/06 11:22:13;;;;;;;5.85;2.50;;;5.80;99.90;;;;;;4993386;28;20041;-70
2022/03/06 11:24:46;;;;;;;4.55;1.90;;;5.90;99.90;;;;;;5009869;28;20046;-68
2022/03/06 11:27:45;;;;;;;4.43;2.38;;;6.10;99.90;;;;;;4991855;28;20038;-68
2022/03/06 11:30:20;;;;;;;8.77;2.40;;;6.20;99.90;;;;;;5008555;28;20060;-67
2022/03/06 11:33:07;;;;;;;5.20;2.38;;;6.40;99.90;;;;;;4982574;28;20398;-67
2022/03/06 11:35:41;;;;;;;6.03;2.10;;;6.40;99.90;;;;;;5005019;28;20524;-67
2022/03/06 11:38:08;;;;;;;5.75;2.20;;;6.40;99.90;;;;;;4985235;28;20045;-67
2022/03/06 11:40:50;;;;;;;6.93;2.40;;;6.50;99.90;;;;;;5007291;28;20057;-66
2022/03/06 11:43:43;;;;;;;6.07;2.10;;;6.60;99.90;;;;;;5007209;28;20050;-68
2022/03/06 11:46:14;;;;;;;;;;;6.70;99.90;;;;;;5010848;28;20082;-68
2022/03/06 11:48:40;;;;;;;5.32;2.28;;;6.80;99.90;;;;;;5009976;28;20331;-67
2022/03/06 11:51:14;;;;;;;5.47;2.20;;;6.80;99.90;;;;;;4988987;28;20148;-69
2022/03/06 11:54:06;;;;;;;7.15;2.40;;;6.80;99.90;;;;;;4995050;28;20068;-69
2022/03/06 11:56:35;;;;;;;4.40;2.30;;;6.70;99.90;;;;;;5016999;28;20081;-67
2022/03/06 11:59:04;;;;;;;4.50;2.22;;;6.60;99.90;;;;;;4993419;28;20053;-68
2022/03/06 12:01:41;;;;;;;5.18;1.77;;;6.50;99.90;;;;;;5000766;28;20488;-68
2022/03/06 12:04:08;;;;;;;4.80;2.25;;;6.50;99.90;;;;;;4993599;28;20424;-69
2022/03/06 12:07:00;;;;;;;5.35;2.60;;;6.60;99.90;;;;;;4977216;28;20045;-69
2022/03/06 12:09:29;;;;;;;4.53;2.15;;;6.60;99.90;;;;;;5006919;28;20042;-72
2022/03/06 12:11:58;;;;;;;6.25;2.50;;;6.60;99.90;;;;;;5011093;28;20061;-69
2022/03/06 12:14:27;;;;;;;6.55;2.40;;;6.60;99.90;;;;;;5006957;28;20054;-73
2022/03/06 12:17:02;;;;;;;6.63;2.08;;;6.70;99.90;;;;;;4993073;28;20559;-67
2022/03/06 12:19:43;;;;;;;4.95;2.35;;;6.70;99.90;;;;;;5015998;28;20049;-69
2022/03/06 12:22:14;;;;;;;5.65;2.65;;;6.70;99.90;;;;;;5008032;28;20042;-68
2022/03/06 12:24:42;;;;;;;7.22;2.20;;;6.70;99.90;;;;;;4989826;28;20576;-68
2022/03/06 12:27:14;;;;;;;8.30;2.42;;;6.60;99.90;;;;;;4986427;28;20132;-68
2022/03/06 12:29:46;;;;;;;6.18;2.40;;;6.60;99.90;;;;;;4985553;28;20100;-69
2022/03/06 12:32:31;;;;;;;5.18;2.42;;;6.60;99.90;;;;;;4984657;28;20133;-72
2022/03/06 12:35:08;;;;;;;6.22;2.38;;;6.70;99.90;;;;;;4994249;28;20084;-69
2022/03/06 12:38:04;;;;;;;6.97;2.28;;;6.70;99.90;;;;;;4990262;28;20053;-70
2022/03/06 12:40:31;;;;;;;6.53;2.30;;;6.60;99.90;;;;;;4988491;28;20045;-69
2022/03/06 12:43:00;;;;;;;5.07;2.40;;;6.70;99.90;;;;;;4986637;28;20512;-73
2022/03/06 12:45:26;;;;;;;5.55;2.42;;;6.60;99.90;;;;;;4988630;28;20681;-74
2022/03/06 12:47:51;;;;;;;7.32;2.53;;;6.60;99.90;;;;;;4986340;28;20057;-74
2022/03/06 12:50:19;;;;;;;4.43;2.13;;;6.70;99.90;;;;;;4990185;28;20038;-74
2022/03/06 12:52:47;;;;;;;6.43;2.50;;;6.80;99.90;;;;;;4993139;28;20565;-74